Página principal
METAR-TAF:

METAR-TAF

Aeroportos :

Aeroporto Internacional do Kuwait

Kuwait, Kuwait

latitude: 29-13N, longitude: 047-59E, altura: 55 m

Observação actual do tempo

O boletim foi feito há 29 minutos, às 09:00 UTC
Vento 12 kt de norte
Temperatura 43°C
Humidade 11%
Pressão 1007 hPa
Visibilidade 10 km ou mais
sem nuvens abaixo de 1500 metros e sem cumulonimbus

METAR: OKBK 270900Z 36012KT CAVOK 43/06 Q1007 NOSIG

Hora: 12:29 (09:29 UTC)

Previsão

O boletim foi feito há 6 horas e 19 minutos, às 03:10 UTC
Previsão válida de 27 às 03 UTC a 28 às 06 UTC
Vento 12 kt de norte
Visibilidade: 7000 m
Temporariamente
de 27 às 03 UTC a 27 às 09 UTC
Vento 3 kt com direcção variável
Visibilidade: 3500 m
bruma

TAF: OKBK 270310Z 2703/2806 35012KT 7000 NSC TEMPO 2703/2709 VRB03KT 3500 HZ

Observações e previsões do tempo de mais de 4000 aeroportos (mensagens METAR e TAF).

As estações disponíveis são os pontos amarelos e vermelhos sobre o mapa.

Mova o rato sobre o mapa para ver o nome da estação.

Depois clique no ponto para visualizar as observações e previsões meteorológicas.

Para alterar o mapa : clique nos botões verdes com uma cruz preta para aumentar o zoom; no botão verde com uma pitada de zoom; ou nas setas verdes para mapas adjacentes.


METAR-TAF: